createdAt,value
2019-06-07T00:01:44.496Z,11.36
2019-06-07T00:04:14.185Z,11.41
2019-06-07T00:06:43.455Z,11.31
2019-06-07T00:09:12.722Z,11.30
2019-06-07T00:11:42.397Z,11.38
2019-06-07T00:14:14.248Z,11.35
2019-06-07T00:16:41.345Z,11.30
2019-06-07T00:19:09.895Z,11.23
2019-06-07T00:22:13.530Z,11.11
2019-06-07T00:24:12.656Z,11.11
2019-06-07T00:26:57.206Z,11.14
2019-06-07T00:29:13.912Z,11.18
2019-06-07T00:31:40.423Z,11.08
2019-06-07T00:34:10.717Z,11.10
2019-06-07T00:36:39.505Z,11.06
2019-06-07T00:39:10.527Z,10.98
2019-06-07T00:41:38.811Z,11.03
2019-06-07T00:44:07.410Z,11.03
2019-06-07T00:46:35.949Z,10.96
2019-06-07T00:49:04.460Z,11.00
2019-06-07T00:51:49.436Z,11.07
2019-06-07T00:54:03.630Z,11.05
2019-06-07T00:56:32.169Z,11.05
2019-06-07T00:59:11.440Z,11.03
2019-06-07T01:01:31.428Z,11.00
2019-06-07T01:03:59.943Z,11.03
2019-06-07T01:06:28.552Z,11.10
2019-06-07T01:08:57.249Z,11.10
2019-06-07T01:11:26.253Z,11.11
2019-06-07T01:13:55.086Z,11.17
2019-06-07T01:16:26.025Z,11.15
2019-06-07T01:18:54.152Z,11.21
2019-06-07T01:21:24.907Z,11.10
2019-06-07T01:24:10.996Z,11.05
2019-06-07T01:26:26.733Z,11.00
2019-06-07T01:28:54.152Z,10.95
2019-06-07T01:31:27.009Z,10.98
2019-06-07T01:33:53.239Z,10.85
2019-06-07T01:36:24.410Z,10.84
2019-06-07T01:38:52.350Z,10.78
2019-06-07T01:41:23.613Z,10.87
2019-06-07T01:43:51.376Z,10.87
2019-06-07T01:46:20.770Z,10.99
2019-06-07T01:48:50.126Z,11.00
2019-06-07T01:51:19.994Z,10.91
2019-06-07T01:53:48.588Z,10.85
2019-06-07T01:56:18.545Z,10.85
2019-06-07T01:58:47.635Z,10.91
2019-06-07T02:01:19.174Z,10.90
2019-06-07T02:03:46.673Z,10.83
2019-06-07T02:06:15.198Z,10.76
2019-06-07T02:08:43.714Z,10.70
2019-06-07T02:11:12.232Z,10.70
2019-06-07T02:13:40.778Z,10.70
2019-06-07T02:16:09.301Z,10.70
2019-06-07T02:18:58.825Z,10.69
2019-06-07T02:21:08.268Z,10.66
2019-06-07T02:23:36.931Z,10.67
2019-06-07T02:26:05.545Z,10.64
2019-06-07T02:28:44.893Z,10.58
2019-06-07T02:31:04.869Z,10.50
2019-06-07T02:33:39.204Z,10.53
2019-06-07T02:36:04.124Z,10.58
2019-06-07T02:38:37.290Z,10.53
2019-06-07T02:41:03.245Z,10.47
2019-06-07T02:43:35.148Z,10.45
2019-06-07T02:46:24.533Z,10.32
2019-06-07T02:48:39.469Z,10.31
2019-06-07T02:51:03.474Z,10.31
2019-06-07T02:53:39.523Z,10.24
2019-06-07T02:58:37.931Z,10.19
2019-06-07T03:01:09.045Z,10.22
2019-06-07T03:03:39.587Z,10.10
2019-06-07T03:06:04.737Z,10.12
2019-06-07T03:08:36.733Z,10.10
2019-06-07T03:11:06.180Z,10.09
2019-06-07T03:13:37.511Z,10.02
2019-06-07T03:16:08.962Z,9.96
2019-06-07T03:19:04.693Z,9.95
2019-06-07T03:21:36.418Z,9.94
2019-06-07T03:24:05.274Z,9.95
2019-06-07T03:26:43.446Z,9.94
2019-06-07T03:29:04.424Z,9.93
2019-06-07T03:31:41.539Z,9.95
2019-06-07T03:34:03.618Z,9.92
2019-06-07T03:36:32.780Z,10.02
2019-06-07T03:39:04.902Z,10.01
2019-06-07T03:41:43.751Z,10.07
2019-06-07T03:44:04.048Z,10.04
2019-06-07T03:46:37.532Z,10.03
2019-06-07T03:49:03.225Z,10.04
2019-06-07T03:51:32.888Z,10.05
2019-06-07T03:54:02.259Z,10.07
2019-06-07T03:56:31.883Z,10.14
2019-06-07T03:59:01.364Z,10.22
2019-06-07T04:01:30.319Z,10.26
2019-06-07T04:04:00.352Z,10.33
2019-06-07T04:06:32.551Z,10.35
2019-06-07T04:08:59.397Z,10.38
2019-06-07T04:11:27.906Z,10.35
2019-06-07T04:13:56.447Z,10.42
2019-06-07T04:16:24.961Z,10.41
2019-06-07T04:18:53.480Z,10.43
2019-06-07T04:21:22.008Z,10.43
2019-06-07T04:23:50.545Z,10.46
2019-06-07T04:26:19.056Z,10.54
2019-06-07T04:29:31.497Z,10.59
2019-06-07T04:31:18.210Z,10.66
2019-06-07T04:33:47.246Z,10.70
2019-06-07T04:36:16.466Z,10.77
2019-06-07T04:38:46.690Z,10.87
2019-06-07T04:41:16.291Z,11.04
2019-06-07T04:43:46.733Z,11.04
2019-06-07T04:46:18.117Z,11.19
2019-06-07T04:48:49.481Z,11.44
2019-06-07T04:51:22.125Z,11.42
2019-06-07T04:53:50.946Z,11.64
2019-06-07T04:56:19.466Z,11.63
2019-06-07T04:58:47.977Z,11.56
2019-06-07T05:01:27.313Z,11.53
2019-06-07T05:03:47.155Z,11.65
2019-06-07T05:06:15.724Z,11.77
2019-06-07T05:08:44.240Z,11.65
2019-06-07T05:11:12.864Z,11.73
2019-06-07T05:13:44.010Z,12.01
2019-06-07T05:16:11.828Z,12.14
2019-06-07T05:18:43.141Z,12.08
2019-06-07T05:21:10.958Z,12.23
2019-06-07T05:24:05.754Z,12.45
2019-06-07T05:26:09.939Z,12.57
2019-06-07T05:28:42.288Z,12.61
2019-06-07T05:31:09.200Z,12.84
2019-06-07T05:33:38.930Z,12.97
2019-06-07T05:36:08.235Z,12.92
2019-06-07T05:38:41.139Z,13.03
2019-06-07T05:41:08.194Z,13.09
2019-06-07T05:43:40.993Z,13.10
2019-06-07T05:46:07.546Z,13.30
2019-06-07T05:48:36.660Z,13.36
2019-06-07T05:51:05.498Z,13.54
2019-06-07T05:53:34.719Z,13.62
2019-06-07T05:56:03.775Z,13.59
2019-06-07T05:58:32.799Z,13.78
2019-06-07T06:01:41.379Z,13.97
2019-06-07T06:03:31.930Z,14.04
2019-06-07T06:06:00.532Z,14.12
2019-06-07T06:08:29.159Z,14.33
2019-06-07T06:10:57.693Z,14.37
2019-06-07T06:13:26.203Z,14.44
2019-06-07T06:16:01.741Z,14.42
2019-06-07T06:18:25.179Z,14.52
2019-06-07T06:21:15.698Z,14.72
2019-06-07T06:23:24.270Z,14.79
2019-06-07T06:25:56.909Z,15.03
2019-06-07T06:28:23.309Z,15.07
2019-06-07T06:30:51.878Z,15.02
2019-06-07T06:33:33.602Z,15.22
2019-06-07T06:35:51.137Z,15.23
2019-06-07T06:38:19.865Z,15.41
2019-06-07T06:40:52.714Z,15.50
2019-06-07T06:43:18.908Z,15.63
2019-06-07T06:45:50.498Z,15.68
2019-06-07T06:48:18.013Z,16.05
2019-06-07T06:50:50.339Z,16.41
2019-06-07T06:53:17.102Z,16.48
2019-06-07T06:55:48.431Z,16.62
2019-06-07T06:58:16.403Z,16.50
2019-06-07T07:00:56.973Z,16.42
2019-06-07T07:05:54.241Z,16.90
2019-06-07T07:08:21.105Z,17.08
2019-06-07T07:10:53.226Z,17.09
2019-06-07T07:13:20.530Z,17.09
2019-06-07T07:15:55.258Z,17.00
2019-06-07T07:18:19.609Z,17.29
2019-06-07T07:20:50.425Z,17.38
2019-06-07T07:23:18.581Z,17.53
2019-06-07T07:25:55.536Z,17.46
2019-06-07T07:28:17.868Z,17.59
2019-06-07T07:30:50.001Z,17.87
2019-06-07T07:33:20.539Z,17.85
2019-06-07T07:36:11.045Z,17.78
2019-06-07T07:38:20.008Z,17.99
2019-06-07T07:41:01.555Z,17.92
2019-06-07T07:43:19.079Z,17.88
2019-06-07T07:45:53.310Z,18.03
2019-06-07T07:48:18.735Z,18.26
2019-06-07T07:50:49.644Z,18.17
2019-06-07T07:53:17.948Z,17.96
2019-06-07T07:55:50.381Z,18.19
2019-06-07T07:58:17.169Z,18.80
2019-06-07T08:00:53.000Z,19.10
2019-06-07T08:03:16.352Z,19.00
2019-06-07T08:05:45.699Z,19.20
2019-06-07T08:08:15.342Z,19.59
2019-06-07T08:10:43.862Z,19.64
2019-06-07T08:13:24.927Z,19.74
2019-06-07T08:15:43.179Z,19.88
2019-06-07T08:18:11.717Z,20.14
2019-06-07T08:21:01.420Z,20.72
2019-06-07T08:23:11.071Z,21.04
2019-06-07T08:25:40.011Z,20.37
2019-06-07T08:28:08.739Z,20.39
2019-06-07T08:31:00.071Z,21.30
2019-06-07T08:38:25.092Z,21.60
2019-06-07T08:40:39.208Z,21.60
2019-06-07T08:43:19.922Z,21.44
2019-06-07T08:45:38.464Z,21.29
2019-06-07T08:48:26.683Z,21.38
2019-06-07T08:50:37.700Z,22.62
2019-06-07T08:53:12.201Z,23.07
2019-06-07T08:55:36.912Z,22.69
2019-06-07T08:58:08.426Z,22.54
2019-06-07T09:00:47.034Z,22.83
2019-06-07T09:03:07.562Z,22.98
2019-06-07T09:05:36.434Z,22.19
2019-06-07T09:08:28.224Z,22.63
2019-06-07T09:10:35.590Z,23.29
2019-06-07T09:13:10.950Z,23.32
2019-06-07T09:15:35.211Z,23.44
2019-06-07T09:20:43.748Z,22.10
2019-06-07T09:23:17.161Z,22.86
2019-06-07T09:25:56.584Z,23.72
2019-06-07T09:28:19.498Z,23.27
2019-06-07T09:30:44.871Z,24.42
2019-06-07T09:33:13.671Z,25.01
2019-06-07T09:35:42.654Z,24.48
2019-06-07T09:38:24.391Z,23.46
2019-06-07T09:40:42.090Z,23.59
2019-06-07T09:45:41.447Z,24.08
2019-06-07T09:48:15.880Z,24.22
2019-06-07T09:50:40.709Z,24.10
2019-06-07T09:53:20.973Z,23.86
2019-06-07T09:55:40.261Z,24.46
2019-06-07T09:58:48.703Z,23.99
2019-06-07T10:00:41.993Z,24.80
2019-06-07T10:03:19.990Z,24.98
2019-06-07T10:05:40.345Z,25.05
2019-06-07T10:08:25.755Z,25.48
2019-06-07T10:10:42.742Z,25.61
2019-06-07T10:13:10.490Z,25.16
2019-06-07T10:15:39.400Z,25.22
2019-06-07T10:18:09.196Z,25.03
2019-06-07T10:20:38.152Z,24.96
2019-06-07T10:23:08.075Z,25.63
2019-06-07T10:25:36.891Z,24.05
2019-06-07T10:28:06.082Z,25.89
2019-06-07T10:30:34.978Z,25.40
2019-06-07T10:33:04.888Z,25.71
2019-06-07T10:35:34.159Z,26.16
2019-06-07T10:38:02.939Z,25.68
2019-06-07T10:40:31.449Z,25.98
2019-06-07T10:43:01.193Z,27.38
2019-06-07T10:45:30.058Z,27.26
2019-06-07T10:47:58.686Z,27.81
2019-06-07T10:50:27.309Z,27.88
2019-06-07T10:52:56.137Z,28.72
2019-06-07T10:55:25.126Z,27.21
2019-06-07T10:57:53.803Z,27.41
2019-06-07T11:00:22.757Z,26.96
2019-06-07T11:02:54.915Z,26.00
2019-06-07T11:05:22.144Z,27.01
2019-06-07T11:07:50.994Z,27.16
2019-06-07T11:10:20.589Z,26.90
2019-06-07T11:12:49.287Z,27.17
2019-06-07T11:15:18.074Z,26.61
2019-06-07T11:17:46.700Z,26.16
2019-06-07T11:20:15.987Z,27.02
2019-06-07T11:22:44.604Z,27.46
2019-06-07T11:25:14.734Z,27.38
2019-06-07T11:27:43.685Z,28.68
2019-06-07T11:30:14.559Z,29.29
2019-06-07T11:32:43.228Z,29.13
2019-06-07T11:35:15.485Z,29.02
2019-06-07T11:37:44.187Z,29.29
2019-06-07T11:40:35.722Z,29.65
2019-06-07T11:42:43.464Z,29.27
2019-06-07T11:45:12.912Z,30.16
2019-06-07T11:47:42.829Z,30.36
2019-06-07T11:50:11.962Z,30.97
2019-06-07T11:52:40.643Z,29.21
2019-06-07T11:55:11.574Z,29.09
2019-06-07T11:57:41.066Z,30.32
2019-06-07T12:00:13.954Z,30.59
2019-06-07T12:02:42.888Z,31.15
2019-06-07T12:05:16.213Z,29.73
2019-06-07T12:07:42.364Z,30.27
2019-06-07T12:10:14.776Z,29.14
2019-06-07T12:12:43.585Z,29.34
2019-06-07T12:15:13.208Z,29.51
2019-06-07T12:17:41.815Z,28.91
2019-06-07T12:20:12.863Z,29.37
2019-06-07T12:22:41.360Z,30.78
2019-06-07T12:25:10.542Z,30.74
2019-06-07T12:27:39.385Z,31.12
2019-06-07T12:30:12.997Z,31.18
2019-06-07T12:32:39.585Z,31.79
2019-06-07T12:35:08.553Z,32.12
2019-06-07T12:37:44.520Z,32.60
2019-06-07T12:40:09.134Z,32.37
2019-06-07T12:42:37.833Z,32.61
2019-06-07T12:45:07.129Z,32.04
2019-06-07T12:47:35.787Z,30.24
2019-06-07T12:50:04.893Z,28.55
2019-06-07T12:52:33.711Z,29.44
2019-06-07T12:55:03.469Z,29.55
2019-06-07T12:57:32.072Z,28.30
2019-06-07T13:00:00.619Z,28.05
2019-06-07T13:02:29.275Z,30.13
2019-06-07T13:04:58.006Z,30.89
2019-06-07T13:07:27.968Z,30.94
2019-06-07T13:09:56.753Z,29.81
2019-06-07T13:12:25.203Z,28.35
2019-06-07T13:14:53.843Z,27.75
2019-06-07T13:17:22.417Z,27.32
2019-06-07T13:19:50.942Z,27.40
2019-06-07T13:22:20.392Z,28.31
2019-06-07T13:24:49.232Z,30.15
2019-06-07T13:27:18.282Z,31.28
2019-06-07T13:29:46.867Z,29.03
2019-06-07T13:32:15.720Z,28.28
2019-06-07T13:34:44.602Z,27.33
2019-06-07T13:37:14.039Z,26.86
2019-06-07T13:39:42.577Z,26.65
2019-06-07T13:42:11.213Z,26.77
2019-06-07T13:44:39.831Z,26.84
2019-06-07T13:47:08.365Z,26.80
2019-06-07T13:49:36.904Z,27.18
2019-06-07T13:52:05.532Z,27.60
2019-06-07T13:54:34.168Z,26.96
2019-06-07T13:57:03.341Z,26.51
2019-06-07T13:59:32.314Z,26.27
2019-06-07T14:02:00.907Z,26.01
2019-06-07T14:04:29.416Z,26.01
2019-06-07T14:06:58.054Z,25.94
2019-06-07T14:09:27.582Z,26.02
2019-06-07T14:11:56.474Z,26.48
2019-06-07T14:14:26.986Z,26.69
2019-06-07T14:16:55.925Z,26.53
2019-06-07T14:19:24.601Z,26.38
2019-06-07T14:21:53.207Z,26.21
2019-06-07T14:24:22.925Z,26.08
2019-06-07T14:27:06.825Z,25.86
2019-06-07T14:29:36.296Z,25.80
2019-06-07T14:32:05.387Z,25.63
2019-06-07T14:34:34.600Z,25.51
2019-06-07T14:37:03.667Z,25.48
2019-06-07T14:39:33.509Z,25.59
2019-06-07T14:42:09.155Z,25.41
2019-06-07T14:44:33.956Z,25.88
2019-06-07T14:47:03.151Z,25.72
2019-06-07T14:49:32.761Z,25.63
2019-06-07T14:52:01.529Z,26.44
2019-06-07T14:54:32.166Z,26.95
2019-06-07T14:57:03.309Z,27.14
2019-06-07T14:59:32.792Z,27.45
2019-06-07T15:02:01.834Z,27.05
2019-06-07T15:04:30.760Z,27.17
2019-06-07T15:06:59.833Z,27.15
2019-06-07T15:09:29.092Z,26.89
2019-06-07T15:11:57.857Z,26.59
2019-06-07T15:14:27.286Z,26.26
2019-06-07T15:16:56.258Z,25.79
2019-06-07T15:19:25.054Z,25.48
2019-06-07T15:21:53.787Z,25.27
2019-06-07T15:24:22.496Z,25.39
2019-06-07T15:26:51.038Z,25.37
2019-06-07T15:29:19.634Z,25.15
2019-06-07T15:31:48.140Z,25.16
2019-06-07T15:34:16.659Z,25.24
2019-06-07T15:36:45.353Z,25.19
2019-06-07T15:39:14.073Z,25.04
2019-06-07T15:41:42.894Z,24.90
2019-06-07T15:44:11.473Z,24.87
2019-06-07T15:46:40.446Z,24.84
2019-06-07T15:49:09.165Z,24.86
2019-06-07T15:51:38.666Z,24.71
2019-06-07T15:54:07.625Z,24.64
2019-06-07T15:56:36.999Z,24.57
2019-06-07T15:59:05.832Z,24.50
2019-06-07T16:01:35.567Z,24.48
2019-06-07T16:04:04.403Z,24.43
2019-06-07T16:06:34.290Z,24.43
2019-06-07T16:09:05.915Z,24.38
2019-06-07T16:11:34.715Z,24.40
2019-06-07T16:14:06.230Z,24.39
2019-06-07T16:16:35.034Z,24.16
2019-06-07T16:19:04.237Z,23.52
2019-06-07T16:21:33.266Z,23.32
2019-06-07T16:24:02.115Z,22.57
2019-06-07T16:26:30.972Z,21.57
2019-06-07T16:28:59.508Z,20.36
2019-06-07T16:31:28.067Z,19.80
2019-06-07T16:33:56.610Z,19.18
2019-06-07T16:36:25.255Z,18.61
2019-06-07T16:38:53.791Z,18.27
2019-06-07T16:41:22.445Z,18.28
2019-06-07T16:43:51.080Z,18.05
2019-06-07T16:46:21.210Z,18.06
2019-06-07T16:48:49.747Z,18.02
2019-06-07T16:51:18.374Z,18.13
2019-06-07T16:53:46.898Z,18.16
2019-06-07T16:56:15.477Z,17.96
2019-06-07T16:58:44.446Z,17.96
2019-06-07T17:01:13.262Z,17.82
2019-06-07T17:03:41.930Z,17.89
2019-06-07T17:06:10.545Z,17.87
2019-06-07T17:08:40.156Z,17.83
2019-06-07T17:11:08.920Z,17.73
2019-06-07T17:13:38.176Z,17.63
2019-06-07T17:16:06.865Z,17.60
2019-06-07T17:18:37.166Z,17.70
2019-06-07T17:21:06.048Z,17.69
2019-06-07T17:23:34.681Z,17.85
2019-06-07T17:26:03.437Z,17.78
2019-06-07T17:28:32.040Z,17.82
2019-06-07T17:31:00.681Z,17.85
2019-06-07T17:33:29.218Z,17.78
2019-06-07T17:35:57.865Z,17.78
2019-06-07T17:38:26.435Z,17.64
2019-06-07T17:40:55.034Z,17.69
2019-06-07T17:43:23.574Z,17.89
2019-06-07T17:45:52.096Z,17.91
2019-06-07T17:48:23.898Z,17.82
2019-06-07T17:50:52.796Z,17.62
2019-06-07T17:53:21.617Z,17.68
2019-06-07T17:55:50.406Z,17.66
2019-06-07T17:58:19.195Z,17.65
2019-06-07T18:00:50.850Z,17.77
2019-06-07T18:03:20.480Z,17.71
2019-06-07T18:05:49.380Z,17.61
2019-06-07T18:08:18.126Z,17.57
2019-06-07T18:10:47.829Z,17.50
2019-06-07T18:13:16.744Z,17.65
2019-06-07T18:15:46.566Z,17.52
2019-06-07T18:18:17.111Z,17.63
2019-06-07T18:20:47.009Z,17.70
2019-06-07T18:23:16.058Z,17.55
2019-06-07T18:25:44.800Z,17.60
2019-06-07T18:28:13.582Z,17.65
2019-06-07T18:30:42.097Z,17.74
2019-06-07T18:33:10.744Z,17.87
2019-06-07T18:35:39.454Z,17.82
2019-06-07T18:38:10.755Z,17.87
2019-06-07T18:40:38.788Z,17.85
2019-06-07T18:43:07.336Z,17.80
2019-06-07T18:45:35.967Z,17.75
2019-06-07T18:48:04.643Z,17.78
2019-06-07T18:50:33.650Z,17.78
2019-06-07T18:53:02.377Z,17.72
2019-06-07T18:55:30.895Z,17.72
2019-06-07T18:57:59.449Z,17.61
2019-06-07T19:00:30.412Z,17.57
2019-06-07T19:02:58.940Z,17.54
2019-06-07T19:05:27.696Z,17.55
2019-06-07T19:07:56.765Z,17.57
2019-06-07T19:10:25.665Z,17.32
2019-06-07T19:12:55.235Z,17.33
2019-06-07T19:15:24.259Z,17.27
2019-06-07T19:17:54.004Z,17.13
2019-06-07T19:20:23.261Z,16.93
2019-06-07T19:22:52.306Z,16.79
2019-06-07T19:25:20.932Z,16.79
2019-06-07T19:27:50.623Z,16.71
2019-06-07T19:30:20.625Z,16.76
2019-06-07T19:32:50.147Z,16.93
2019-06-07T19:35:19.850Z,16.90
2019-06-07T19:37:48.485Z,17.07
2019-06-07T19:40:19.105Z,17.11
2019-06-07T19:42:48.160Z,17.07
2019-06-07T19:45:29.544Z,17.04
2019-06-07T19:47:47.733Z,17.04
2019-06-07T19:50:18.337Z,16.93
2019-06-07T19:52:47.184Z,16.78
2019-06-07T19:55:15.966Z,16.85
2019-06-07T19:57:44.694Z,16.81
2019-06-07T20:00:14.564Z,16.74
2019-06-07T20:02:43.520Z,16.85
2019-06-07T20:05:12.673Z,16.78
2019-06-07T20:07:41.525Z,16.73
2019-06-07T20:10:10.848Z,16.89
2019-06-07T20:12:39.529Z,16.82
2019-06-07T20:15:27.202Z,16.83
2019-06-07T20:17:39.886Z,16.83
2019-06-07T20:20:11.492Z,16.93
2019-06-07T20:22:40.840Z,17.07
2019-06-07T20:25:10.832Z,17.11
2019-06-07T20:27:39.557Z,17.16
2019-06-07T20:30:08.680Z,17.05
2019-06-07T20:32:37.355Z,17.06
2019-06-07T20:35:08.180Z,17.09
2019-06-07T20:37:37.359Z,17.12
2019-06-07T20:40:22.345Z,17.19
2019-06-07T20:42:37.997Z,17.18
2019-06-07T20:45:08.161Z,17.23
2019-06-07T20:47:37.027Z,17.13
2019-06-07T20:50:06.313Z,17.14
2019-06-07T20:52:34.966Z,17.12
2019-06-07T20:55:04.895Z,17.20
2019-06-07T20:57:33.509Z,17.19
2019-06-07T21:00:10.557Z,17.19
2019-06-07T21:02:33.006Z,17.17
2019-06-07T21:05:01.678Z,17.05
2019-06-07T21:07:30.814Z,17.06
2019-06-07T21:09:59.531Z,17.12
2019-06-07T21:12:28.197Z,17.09
2019-06-07T21:14:56.711Z,17.00
2019-06-07T21:17:25.327Z,16.94
2019-06-07T21:19:53.899Z,16.91
2019-06-07T21:22:22.415Z,16.83
2019-06-07T21:24:50.942Z,16.88
2019-06-07T21:27:19.779Z,16.85
2019-06-07T21:29:48.412Z,16.74
2019-06-07T21:32:16.984Z,16.68
2019-06-07T21:34:45.528Z,16.71
2019-06-07T21:37:14.123Z,16.69
2019-06-07T21:39:42.801Z,16.66
2019-06-07T21:42:12.411Z,16.66
2019-06-07T21:44:41.154Z,16.55
2019-06-07T21:47:10.603Z,16.59
2019-06-07T21:49:39.617Z,16.60
2019-06-07T21:52:08.736Z,16.57
2019-06-07T21:54:37.402Z,16.58
2019-06-07T21:57:06.909Z,16.52
2019-06-07T21:59:35.677Z,16.61
2019-06-07T22:02:05.383Z,16.59
2019-06-07T22:04:36.373Z,16.57
2019-06-07T22:07:05.345Z,16.51
2019-06-07T22:09:37.166Z,16.58
2019-06-07T22:12:06.044Z,16.55
2019-06-07T22:14:34.702Z,16.47
2019-06-07T22:17:04.081Z,16.45
2019-06-07T22:19:48.099Z,16.48
2019-06-07T22:22:18.097Z,16.47
2019-06-07T22:24:47.232Z,16.49
2019-06-07T22:27:15.881Z,16.54
2019-06-07T22:29:44.414Z,16.59
2019-06-07T22:32:13.097Z,16.57
2019-06-07T22:34:41.597Z,16.61
2019-06-07T22:37:11.300Z,16.58
2019-06-07T22:39:39.979Z,16.53
2019-06-07T22:42:08.848Z,16.47
2019-06-07T22:44:40.031Z,16.49
2019-06-07T22:47:08.216Z,16.44
2019-06-07T22:49:36.787Z,16.45
2019-06-07T22:52:17.343Z,16.42
2019-06-07T22:54:45.750Z,16.44
2019-06-07T22:57:20.092Z,16.47
2019-06-07T22:59:48.826Z,16.47
2019-06-07T23:02:18.726Z,16.43
2019-06-07T23:04:47.586Z,16.50
2019-06-07T23:07:17.132Z,16.53
2019-06-07T23:09:45.844Z,16.53
2019-06-07T23:12:15.293Z,16.45
2019-06-07T23:14:43.993Z,16.49
2019-06-07T23:17:13.868Z,16.45
2019-06-07T23:19:42.546Z,16.42
2019-06-07T23:22:11.887Z,16.37
2019-06-07T23:24:40.690Z,16.40
2019-06-07T23:27:10.948Z,16.38
2019-06-07T23:29:39.950Z,16.26
2019-06-07T23:32:08.482Z,16.28
2019-06-07T23:34:37.021Z,16.27
2019-06-07T23:37:05.655Z,16.27
2019-06-07T23:39:34.327Z,16.18
2019-06-07T23:42:03.054Z,16.08
2019-06-07T23:44:31.632Z,16.07
2019-06-07T23:47:10.856Z,15.97
2019-06-07T23:49:30.996Z,16.00
2019-06-07T23:51:59.555Z,15.99
2019-06-07T23:54:28.102Z,15.98
2019-06-07T23:56:56.749Z,15.95
2019-06-07T23:59:25.298Z,15.89
